Time;durP1;ratioP1;P1;durP2;ratioP2;P2;SDS_P1;SDS_P2;PMS_P1;PMS_P2;Temp;Humidity;BMP_temperature;BMP_pressure;BME280_temperature;BME280_humidity;BME280_pressure;Samples;Min_cycle;Max_cycle;Signal;HPM_P1;HPM_P2
2023/01/05 00:01:38;;;;;;;10.93;2.78;;;14.40;73.00;;;;;;4841171;29;20034;-81
2023/01/05 00:04:05;;;;;;;11.43;3.45;;;14.40;73.10;;;;;;4846791;29;20042;-78
2023/01/05 00:06:31;;;;;;;12.32;2.70;;;14.40;73.20;;;;;;4830477;29;20080;-79
2023/01/05 00:08:58;;;;;;;15.80;3.88;;;14.40;73.10;;;;;;4830289;29;20050;-81
2023/01/05 00:22:52;;;;;;;11.75;2.47;;;14.30;73.10;;;;;;4775162;30;20047;-80
2023/01/05 00:25:21;;;;;;;12.93;2.92;;;14.30;73.20;;;;;;4807491;29;20053;-79
2023/01/05 00:27:50;;;;;;;10.88;3.22;;;14.30;73.30;;;;;;4846588;29;20358;-82
2023/01/05 00:30:18;;;;;;;8.05;2.75;;;14.30;73.20;;;;;;4842293;29;20046;-80
2023/01/05 00:32:45;;;;;;;12.07;3.28;;;14.30;73.20;;;;;;4826901;29;20050;-79
2023/01/05 00:35:12;;;;;;;10.60;2.72;;;14.40;73.30;;;;;;4828079;29;20050;-79
2023/01/05 00:37:39;;;;;;;13.88;2.90;;;14.30;73.00;;;;;;4811890;29;20050;-78
2023/01/05 00:40:06;;;;;;;13.18;3.58;;;14.30;73.10;;;;;;4827941;29;20066;-81
2023/01/05 00:42:32;;;;;;;11.43;3.25;;;14.30;73.20;;;;;;4827570;29;20115;-78
2023/01/05 00:44:58;;;;;;;10.25;2.83;;;14.30;73.10;;;;;;4811266;29;20046;-81
2023/01/05 00:47:24;;;;;;;11.27;2.80;;;14.30;72.90;;;;;;4796539;29;20146;-79
2023/01/05 00:49:49;;;;;;;12.05;2.58;;;14.30;73.00;;;;;;4826977;29;20056;-78
2023/01/05 00:52:15;;;;;;;12.30;3.50;;;14.30;72.80;;;;;;4828242;29;20050;-78
2023/01/05 00:54:41;;;;;;;9.60;2.95;;;14.30;73.00;;;;;;4826565;29;20046;-81
2023/01/05 00:57:09;;;;;;;19.52;3.42;;;14.30;73.00;;;;;;4842042;29;20115;-81
2023/01/05 00:59:35;;;;;;;11.85;2.72;;;14.30;73.00;;;;;;4811421;29;20133;-80
2023/01/05 01:02:01;;;;;;;12.02;2.78;;;14.30;73.00;;;;;;4844631;29;20129;-81
2023/01/05 01:04:26;;;;;;;7.88;2.53;;;14.30;73.00;;;;;;4845815;29;20438;-80
2023/01/05 01:06:53;;;;;;;11.73;2.63;;;14.30;72.90;;;;;;4830216;29;20140;-80
2023/01/05 01:09:19;;;;;;;11.68;2.90;;;14.30;72.80;;;;;;4829272;29;20054;-81
2023/01/05 01:11:44;;;;;;;11.80;3.03;;;14.30;72.70;;;;;;4814301;29;20065;-79
2023/01/05 01:14:12;;;;;;;12.82;3.10;;;14.30;72.80;;;;;;4829270;29;20053;-79
2023/01/05 01:16:40;;;;;;;12.38;3.17;;;14.30;73.40;;;;;;4814454;29;20057;-81
2023/01/05 01:19:07;;;;;;;12.52;3.25;;;14.30;72.90;;;;;;4845332;29;20454;-78
2023/01/05 01:21:33;;;;;;;10.07;2.97;;;14.30;72.80;;;;;;4828823;29;20140;-81
2023/01/05 01:23:59;;;;;;;16.58;3.70;;;14.20;72.80;;;;;;4829016;29;20137;-78
2023/01/05 01:26:25;;;;;;;13.00;2.60;;;14.20;72.80;;;;;;4829727;29;20054;-79
2023/01/05 01:28:50;;;;;;;10.40;2.80;;;14.20;73.30;;;;;;4829222;29;20046;-80
2023/01/05 01:31:16;;;;;;;10.60;2.63;;;14.20;72.70;;;;;;4828985;29;20057;-80
2023/01/05 01:33:42;;;;;;;12.55;2.97;;;14.20;72.70;;;;;;4845187;29;20362;-81
2023/01/05 01:36:08;;;;;;;12.25;3.17;;;14.20;72.50;;;;;;4845050;29;20384;-79
2023/01/05 01:38:34;;;;;;;13.35;3.08;;;14.20;72.60;;;;;;4845300;29;20065;-81
2023/01/05 01:41:00;;;;;;;13.63;3.33;;;14.20;72.70;;;;;;4844826;29;20142;-78
2023/01/05 01:43:47;;;;;;;12.02;2.70;;;14.20;72.80;;;;;;4844647;29;20093;-79
2023/01/05 01:46:14;;;;;;;13.57;3.60;;;14.20;72.60;;;;;;4845553;29;20133;-81
2023/01/05 01:48:47;;;;;;;11.73;2.65;;;14.20;72.80;;;;;;4828896;29;20122;-78
2023/01/05 01:51:21;;;;;;;12.63;2.67;;;14.20;72.80;;;;;;4843865;29;20069;-79
2023/01/05 01:53:52;;;;;;;9.18;2.28;;;14.20;72.80;;;;;;4829297;29;20069;-79
2023/01/05 01:56:21;;;;;;;18.67;3.90;;;14.20;72.70;;;;;;4844946;29;20133;-80
2023/01/05 01:58:47;;;;;;;11.05;2.92;;;14.20;72.60;;;;;;4844150;29;20080;-79
2023/01/05 02:01:14;;;;;;;12.80;3.25;;;14.20;72.70;;;;;;4843834;29;20054;-81
2023/01/05 02:03:40;;;;;;;14.40;3.42;;;14.20;72.80;;;;;;4828834;29;20453;-80
2023/01/05 02:06:06;;;;;;;12.15;2.83;;;14.20;72.70;;;;;;4844329;29;20054;-78
2023/01/05 02:08:32;;;;;;;12.00;3.08;;;14.20;72.70;;;;;;4844877;29;20061;-81
2023/01/05 02:11:23;;;;;;;10.73;2.55;;;14.20;72.80;;;;;;4844060;29;20061;-82
2023/01/05 02:14:21;;;;;;;18.50;3.17;;;14.20;72.40;;;;;;4828561;29;20050;-79
2023/01/05 02:17:14;;;;;;;11.85;2.35;;;14.20;72.40;;;;;;4807607;29;20066;-79
2023/01/05 02:20:08;;;;;;;13.07;2.50;;;14.20;72.60;;;;;;4828892;29;20050;-81
2023/01/05 02:23:00;;;;;;;13.25;3.40;;;14.20;72.60;;;;;;4844350;29;20054;-81
2023/01/05 02:25:59;;;;;;;10.85;3.38;;;14.20;72.30;;;;;;4839607;29;20144;-79
2023/01/05 02:28:54;;;;;;;12.48;3.35;;;14.10;72.60;;;;;;4828458;29;20385;-81
2023/01/05 02:31:40;;;;;;;14.48;3.15;;;14.20;72.80;;;;;;4829148;29;20054;-79
2023/01/05 02:34:25;;;;;;;11.25;2.83;;;14.20;72.80;;;;;;4828362;29;20121;-81
2023/01/05 02:36:53;;;;;;;9.27;2.83;;;14.20;72.70;;;;;;4813207;29;20058;-80
2023/01/05 02:39:40;;;;;;;13.10;3.65;;;14.10;72.70;;;;;;4844255;29;20054;-80
2023/01/05 02:42:06;;;;;;;13.68;3.40;;;14.20;72.80;;;;;;4828092;29;20469;-79
2023/01/05 02:44:32;;;;;;;11.88;2.97;;;14.10;72.60;;;;;;4844214;29;20045;-79
2023/01/05 02:47:04;;;;;;;14.32;2.60;;;14.20;72.70;;;;;;4829950;29;20125;-81
2023/01/05 02:49:35;;;;;;;12.00;3.50;;;14.20;72.60;;;;;;4809674;29;20471;-79
2023/01/05 02:52:03;;;;;;;15.57;3.83;;;14.10;72.60;;;;;;4840104;29;20049;-79
2023/01/05 02:54:42;;;;;;;12.80;3.10;;;14.10;72.60;;;;;;4825923;29;20405;-81
2023/01/05 02:57:45;;;;;;;12.60;3.20;;;14.10;72.60;;;;;;4840491;29;20065;-79
2023/01/05 03:00:12;;;;;;;15.40;3.40;;;14.10;72.60;;;;;;4831261;29;20064;-80
2023/01/05 03:02:40;;;;;;;10.65;3.03;;;14.10;72.60;;;;;;4843399;29;20042;-79
2023/01/05 03:05:11;;;;;;;12.30;2.67;;;14.20;72.70;;;;;;4843958;29;20085;-81
2023/01/05 03:07:40;;;;;;;12.88;3.00;;;14.20;72.70;;;;;;4844231;29;20133;-80
2023/01/05 03:15:42;;;;;;;10.70;3.00;;;14.30;72.70;;;;;;4831417;29;20057;-79
2023/01/05 03:18:16;;;;;;;12.30;3.70;;;14.30;72.70;;;;;;4847761;29;20061;-79
2023/01/05 03:20:46;;;;;;;13.05;3.33;;;14.40;72.70;;;;;;4831089;29;20045;-81
2023/01/05 03:37:46;;;;;;;11.45;3.25;;;14.40;72.60;;;;;;4828568;29;20054;-78
2023/01/05 03:40:19;;;;;;;9.00;2.55;;;14.40;72.70;;;;;;4813018;29;20059;-78
2023/01/05 03:42:45;;;;;;;11.57;3.05;;;14.40;72.60;;;;;;4828689;29;20104;-79
2023/01/05 03:45:14;;;;;;;11.55;2.67;;;14.50;72.70;;;;;;4828729;29;20058;-80
2023/01/05 03:47:39;;;;;;;11.15;2.90;;;14.50;72.70;;;;;;4828790;29;20366;-81
2023/01/05 03:50:06;;;;;;;10.43;3.30;;;14.50;72.70;;;;;;4837124;29;20056;-80
2023/01/05 03:52:32;;;;;;;11.05;3.20;;;14.50;72.70;;;;;;4847059;29;20049;-78
2023/01/05 03:54:57;;;;;;;9.25;3.13;;;14.50;72.70;;;;;;4846777;29;20053;-79
2023/01/05 03:57:23;;;;;;;9.35;2.83;;;14.50;72.70;;;;;;4831477;29;20058;-77
2023/01/05 03:59:49;;;;;;;8.27;2.90;;;14.50;72.70;;;;;;4846200;29;20149;-79
2023/01/05 04:02:14;;;;;;;9.52;2.40;;;14.50;72.70;;;;;;4846822;29;20110;-78
2023/01/05 04:04:40;;;;;;;6.30;2.08;;;14.50;72.80;;;;;;4830649;29;20443;-78
2023/01/05 04:07:06;;;;;;;8.68;2.20;;;14.50;72.80;;;;;;4830246;29;20065;-78
2023/01/05 04:09:32;;;;;;;11.68;3.40;;;14.50;72.80;;;;;;4830537;29;20050;-79
2023/01/05 04:11:59;;;;;;;11.50;2.78;;;14.50;72.70;;;;;;4846688;29;20474;-78
2023/01/05 04:14:25;;;;;;;9.10;2.55;;;14.60;72.80;;;;;;4846608;29;20068;-79
2023/01/05 04:16:51;;;;;;;11.45;2.97;;;14.50;72.70;;;;;;4846458;29;20046;-80
2023/01/05 04:19:16;;;;;;;6.07;1.90;;;14.50;72.70;;;;;;4846869;29;20054;-81
2023/01/05 04:21:42;;;;;;;9.20;2.67;;;14.60;72.70;;;;;;4846225;29;20114;-79
2023/01/05 04:24:11;;;;;;;10.10;2.72;;;14.60;72.70;;;;;;4845170;29;20061;-78
2023/01/05 04:26:38;;;;;;;9.77;2.45;;;14.60;72.70;;;;;;4846440;29;20054;-78
2023/01/05 04:29:04;;;;;;;8.38;2.40;;;14.60;72.70;;;;;;4845176;29;20061;-78
2023/01/05 04:31:30;;;;;;;9.13;2.45;;;14.60;72.70;;;;;;4828195;29;20095;-78
2023/01/05 04:33:56;;;;;;;10.20;3.10;;;14.60;72.70;;;;;;4828207;29;20046;-79
2023/01/05 04:36:22;;;;;;;12.70;2.22;;;14.60;72.70;;;;;;4828589;29;20046;-79
2023/01/05 04:38:48;;;;;;;7.97;2.28;;;14.60;72.70;;;;;;4826907;29;20103;-77
2023/01/05 04:41:13;;;;;;;11.80;2.90;;;14.60;72.70;;;;;;4826812;29;20482;-78
2023/01/05 04:43:39;;;;;;;6.88;2.00;;;14.60;72.70;;;;;;4838400;29;20105;-80
2023/01/05 04:46:05;;;;;;;9.00;2.17;;;14.60;72.70;;;;;;4846070;29;20063;-77
2023/01/05 04:48:34;;;;;;;9.02;2.42;;;14.60;72.70;;;;;;4845693;29;20061;-77
2023/01/05 04:51:00;;;;;;;13.07;2.25;;;14.60;72.80;;;;;;4845821;29;20406;-81
2023/01/05 04:53:25;;;;;;;13.95;2.47;;;14.50;72.80;;;;;;4845099;29;20194;-77
2023/01/05 04:55:57;;;;;;;14.00;2.60;;;14.50;73.00;;;;;;4845775;29;20374;-77
2023/01/05 04:58:28;;;;;;;15.77;3.55;;;14.60;72.60;;;;;;4844914;29;20041;-81
2023/01/05 05:00:58;;;;;;;13.07;4.57;;;14.50;71.90;;;;;;4830227;29;20443;-79
2023/01/05 05:03:26;;;;;;;18.23;4.07;;;14.50;71.60;;;;;;4841524;29;20121;-75
2023/01/05 05:06:24;;;;;;;16.20;4.25;;;14.50;71.10;;;;;;4827420;29;20126;-81
2023/01/05 05:08:50;;;;;;;17.80;3.72;;;14.40;70.80;;;;;;4822598;29;20432;-78
2023/01/05 05:11:15;;;;;;;21.35;4.82;;;14.40;71.00;;;;;;4844073;29;20037;-78
2023/01/05 05:13:41;;;;;;;20.35;4.50;;;14.40;71.20;;;;;;4828631;29;20453;-74
2023/01/05 05:16:07;;;;;;;21.98;3.72;;;14.40;71.50;;;;;;4845333;29;20065;-79
2023/01/05 05:18:33;;;;;;;18.13;4.25;;;14.50;71.60;;;;;;4828472;29;20046;-77
2023/01/05 05:20:58;;;;;;;16.83;4.65;;;14.60;71.60;;;;;;4837887;29;20343;-79
2023/01/05 05:23:24;;;;;;;22.92;4.43;;;14.70;72.10;;;;;;4827111;29;20073;-77
2023/01/05 05:26:17;;;;;;;16.33;3.03;;;14.90;72.20;;;;;;4839717;29;20106;-77
2023/01/05 05:29:21;;;;;;;16.45;4.32;;;15.00;71.80;;;;;;4828684;29;20057;-79
2023/01/05 05:31:47;;;;;;;18.10;4.30;;;15.10;72.40;;;;;;4844085;29;20046;-77
2023/01/05 05:34:13;;;;;;;20.80;4.60;;;15.20;72.50;;;;;;4828641;29;20050;-77
2023/01/05 05:36:42;;;;;;;15.32;3.47;;;15.30;72.60;;;;;;4841156;29;20035;-76
2023/01/05 05:39:10;;;;;;;22.95;4.07;;;15.30;72.80;;;;;;4825873;29;20187;-79
2023/01/05 05:41:35;;;;;;;28.17;4.22;;;15.30;73.00;;;;;;4826691;29;20547;-77
2023/01/05 05:44:01;;;;;;;25.17;4.25;;;15.30;73.00;;;;;;4826758;29;20115;-75
2023/01/05 05:46:27;;;;;;;26.52;4.22;;;15.30;72.90;;;;;;4826767;29;20126;-73
2023/01/05 05:48:54;;;;;;;14.65;3.63;;;15.30;73.30;;;;;;4826847;29;20146;-72
2023/01/05 05:51:20;;;;;;;21.88;5.28;;;15.10;68.80;;;;;;4826780;29;20065;-73
2023/01/05 05:53:46;;;;;;;25.42;4.28;;;15.20;73.50;;;;;;4840761;29;20046;-74
2023/01/05 05:56:11;;;;;;;27.45;4.32;;;15.20;73.80;;;;;;4826522;29;20039;-80
2023/01/05 05:58:37;;;;;;;20.98;3.67;;;15.30;73.90;;;;;;4826616;29;20555;-72
2023/01/05 06:01:03;;;;;;;17.25;3.47;;;15.30;73.90;;;;;;4826592;29;20064;-76
2023/01/05 06:03:29;;;;;;;24.73;4.75;;;15.30;74.00;;;;;;4810063;29;20050;-75
2023/01/05 06:05:54;;;;;;;26.65;4.30;;;15.30;72.90;;;;;;4826326;29;20054;-77
2023/01/05 06:08:20;;;;;;;17.88;4.03;;;15.40;73.60;;;;;;4826417;29;20115;-71
2023/01/05 06:10:48;;;;;;;23.25;3.67;;;15.40;72.70;;;;;;4834562;29;20125;-75
2023/01/05 06:13:14;;;;;;;29.20;4.15;;;15.50;73.10;;;;;;4843886;29;20065;-78
2023/01/05 06:15:40;;;;;;;28.67;4.35;;;15.60;73.00;;;;;;4844359;29;20145;-74
2023/01/05 06:18:06;;;;;;;19.92;3.70;;;15.70;73.00;;;;;;4828841;29;20370;-77
2023/01/05 06:20:32;;;;;;;21.08;3.65;;;15.80;73.30;;;;;;4827728;29;20046;-76
2023/01/05 06:22:58;;;;;;;20.10;3.97;;;15.90;73.20;;;;;;4844053;29;20114;-76
2023/01/05 06:25:24;;;;;;;21.77;4.18;;;16.00;73.20;;;;;;4828116;29;20066;-75
2023/01/05 06:27:49;;;;;;;17.90;3.92;;;16.10;73.20;;;;;;4844501;29;20086;-78
2023/01/05 06:30:18;;;;;;;19.38;3.72;;;16.20;73.20;;;;;;4844142;29;20049;-78
2023/01/05 06:32:44;;;;;;;16.63;3.90;;;16.20;73.20;;;;;;4834382;29;20070;-75
2023/01/05 06:35:10;;;;;;;18.92;3.53;;;16.30;72.90;;;;;;4826160;29;20165;-75
2023/01/05 06:37:38;;;;;;;12.27;2.85;;;16.30;72.30;;;;;;4826025;29;20046;-79
2023/01/05 06:40:05;;;;;;;15.35;3.53;;;16.30;72.10;;;;;;4825643;29;20054;-79
2023/01/05 06:42:31;;;;;;;21.50;4.60;;;16.40;71.80;;;;;;4826167;29;20129;-77
2023/01/05 06:44:57;;;;;;;18.85;3.42;;;16.40;72.30;;;;;;4826148;29;20497;-75
2023/01/05 06:47:23;;;;;;;17.25;3.58;;;16.40;72.80;;;;;;4811432;29;20125;-77
2023/01/05 06:49:49;;;;;;;18.13;3.00;;;16.10;65.80;;;;;;4814500;29;20114;-77
2023/01/05 06:52:14;;;;;;;19.55;3.78;;;16.10;72.80;;;;;;4829612;29;20439;-75
2023/01/05 06:54:40;;;;;;;17.27;3.30;;;16.20;73.50;;;;;;4842555;29;20042;-75
2023/01/05 06:57:06;;;;;;;21.65;3.10;;;16.20;73.80;;;;;;4831751;29;20469;-75
2023/01/05 06:59:32;;;;;;;17.40;3.55;;;16.30;74.00;;;;;;4848014;29;20073;-77
2023/01/05 07:01:58;;;;;;;24.48;4.20;;;16.20;74.60;;;;;;4847661;29;20050;-79
2023/01/05 07:04:24;;;;;;;19.33;4.38;;;16.30;74.20;;;;;;4846646;29;20061;-78
2023/01/05 07:06:49;;;;;;;20.08;3.83;;;16.30;74.50;;;;;;4832221;29;20531;-77
2023/01/05 07:09:15;;;;;;;17.80;3.17;;;16.20;74.20;;;;;;4829469;29;20129;-76
2023/01/05 07:11:41;;;;;;;17.17;3.78;;;16.20;73.90;;;;;;4829599;29;20054;-75
2023/01/05 07:14:06;;;;;;;21.25;3.72;;;16.20;73.40;;;;;;4829928;29;20123;-75
2023/01/05 07:16:32;;;;;;;13.90;3.97;;;16.20;72.90;;;;;;4828949;29;20358;-77
2023/01/05 07:18:58;;;;;;;17.88;3.95;;;16.20;72.40;;;;;;4829032;29;20137;-76
2023/01/05 07:21:23;;;;;;;17.58;2.85;;;16.10;72.20;;;;;;4828524;29;20189;-75
2023/01/05 07:23:49;;;;;;;15.95;3.40;;;16.10;70.90;;;;;;4828922;29;20050;-76
2023/01/05 07:26:15;;;;;;;15.70;3.50;;;16.00;71.00;;;;;;4812940;29;20090;-80
2023/01/05 07:28:41;;;;;;;17.17;3.67;;;15.80;69.80;;;;;;4828828;29;20126;-77
2023/01/05 07:31:06;;;;;;;16.83;3.13;;;15.80;71.00;;;;;;4813638;29;20518;-77
2023/01/05 07:33:32;;;;;;;23.70;3.83;;;15.40;67.90;;;;;;4828970;29;20494;-76
2023/01/05 07:36:05;;;;;;;19.85;4.18;;;15.30;71.30;;;;;;4819888;29;20046;-76
2023/01/05 07:38:31;;;;;;;27.48;4.10;;;15.40;72.60;;;;;;4846462;29;20421;-75
2023/01/05 07:40:58;;;;;;;26.30;5.20;;;15.50;72.80;;;;;;4846754;29;20122;-76
2023/01/05 07:43:24;;;;;;;22.88;4.35;;;15.50;72.30;;;;;;4847153;29;20049;-77
2023/01/05 07:45:50;;;;;;;25.02;4.05;;;15.50;72.30;;;;;;4846982;29;20064;-79
2023/01/05 07:48:16;;;;;;;21.67;4.50;;;15.50;72.10;;;;;;4846724;29;20159;-81
2023/01/05 07:50:41;;;;;;;23.00;4.63;;;15.50;72.10;;;;;;4843063;29;20378;-81
2023/01/05 07:53:07;;;;;;;18.15;4.32;;;15.50;72.20;;;;;;4845456;29;20049;-79
2023/01/05 07:55:33;;;;;;;18.60;3.78;;;15.50;72.10;;;;;;4846459;29;20124;-77
2023/01/05 07:57:59;;;;;;;23.20;4.60;;;15.50;72.20;;;;;;4846185;29;20501;-79
2023/01/05 08:00:24;;;;;;;15.05;3.83;;;15.50;72.20;;;;;;4846340;29;20049;-80
2023/01/05 08:02:50;;;;;;;19.20;3.33;;;15.50;72.40;;;;;;4830297;29;20458;-82
2023/01/05 08:05:16;;;;;;;12.95;3.40;;;15.50;72.40;;;;;;4843159;29;20046;-80
2023/01/05 08:07:41;;;;;;;19.23;3.97;;;15.50;72.60;;;;;;4845473;29;20132;-78
2023/01/05 08:10:27;;;;;;;19.13;3.58;;;15.50;72.80;;;;;;4846108;29;20081;-79
2023/01/05 08:15:37;;;;;;;15.75;3.03;;;15.50;73.00;;;;;;4845843;29;20107;-75
2023/01/05 08:18:03;;;;;;;14.60;2.95;;;15.50;73.00;;;;;;4845578;29;20157;-79
2023/01/05 08:20:29;;;;;;;13.48;3.72;;;15.50;73.00;;;;;;4829748;29;20053;-78
2023/01/05 08:22:58;;;;;;;18.05;3.50;;;15.50;73.00;;;;;;4829578;29;20050;-80
2023/01/05 08:25:23;;;;;;;18.08;3.45;;;15.50;73.10;;;;;;4844842;29;20049;-76
2023/01/05 08:27:49;;;;;;;14.25;3.70;;;15.50;73.20;;;;;;4843630;29;20477;-77
2023/01/05 08:30:15;;;;;;;16.92;3.05;;;15.50;73.40;;;;;;4844027;29;20454;-75
2023/01/05 08:32:41;;;;;;;15.55;3.33;;;15.50;73.30;;;;;;4830368;29;20122;-75
2023/01/05 08:35:07;;;;;;;15.43;3.33;;;15.50;73.30;;;;;;4845712;29;20124;-79
2023/01/05 08:37:33;;;;;;;18.67;3.95;;;15.50;73.40;;;;;;4845453;29;20094;-77
2023/01/05 08:39:59;;;;;;;17.98;3.40;;;15.50;73.30;;;;;;4845371;29;20062;-77
2023/01/05 08:42:24;;;;;;;14.35;2.92;;;15.50;73.40;;;;;;4843010;29;20045;-78
2023/01/05 08:44:50;;;;;;;24.73;3.50;;;15.50;73.40;;;;;;4844580;29;20037;-76
2023/01/05 08:47:16;;;;;;;12.25;3.05;;;15.40;73.30;;;;;;4845459;29;20046;-78
2023/01/05 08:49:41;;;;;;;17.50;2.55;;;15.40;73.40;;;;;;4829242;29;20046;-77
2023/01/05 08:52:07;;;;;;;17.77;2.95;;;15.50;73.50;;;;;;4845139;29;20060;-76
2023/01/05 08:54:33;;;;;;;15.70;2.70;;;15.40;73.60;;;;;;4845091;29;20084;-78
2023/01/05 08:56:59;;;;;;;15.35;3.53;;;15.40;73.60;;;;;;4845362;29;20054;-77
2023/01/05 08:59:25;;;;;;;14.48;2.85;;;15.40;73.60;;;;;;4845554;29;20149;-79
2023/01/05 09:01:51;;;;;;;15.82;3.25;;;15.40;73.70;;;;;;4845384;29;20465;-78
2023/01/05 09:04:17;;;;;;;11.68;3.20;;;15.40;73.80;;;;;;4845249;29;20373;-79
2023/01/05 09:06:43;;;;;;;20.60;3.40;;;15.40;73.80;;;;;;4845213;29;20056;-78
2023/01/05 09:09:09;;;;;;;14.18;3.05;;;15.40;73.80;;;;;;4843556;29;20090;-77
2023/01/05 09:11:35;;;;;;;14.00;2.90;;;15.40;73.80;;;;;;4843143;29;20051;-76
2023/01/05 09:14:04;;;;;;;15.23;2.58;;;15.40;73.80;;;;;;4849679;29;20053;-77
2023/01/05 09:16:33;;;;;;;18.23;3.90;;;15.40;73.80;;;;;;4845016;29;20034;-79
2023/01/05 09:19:01;;;;;;;12.57;2.83;;;15.50;73.90;;;;;;4844438;29;20450;-82
2023/01/05 09:21:27;;;;;;;13.65;3.13;;;15.40;73.90;;;;;;4843716;29;20045;-75
2023/01/05 09:23:53;;;;;;;13.63;2.90;;;15.50;73.90;;;;;;4844583;29;20480;-77
2023/01/05 09:26:19;;;;;;;13.65;2.25;;;15.50;73.90;;;;;;4844495;29;20046;-76
2023/01/05 09:28:45;;;;;;;10.35;2.15;;;15.50;73.90;;;;;;4827877;29;20050;-78
2023/01/05 09:31:19;;;;;;;12.50;2.95;;;15.40;73.80;;;;;;4844653;29;20129;-76
2023/01/05 09:33:45;;;;;;;11.25;2.67;;;15.40;73.80;;;;;;4842403;29;20045;-76
2023/01/05 09:36:12;;;;;;;10.13;2.13;;;15.40;73.80;;;;;;4828893;29;20480;-78
2023/01/05 09:38:38;;;;;;;9.50;2.08;;;15.40;73.80;;;;;;4827690;29;20081;-76
2023/01/05 09:41:21;;;;;;;9.93;2.42;;;15.40;73.90;;;;;;4844239;29;20489;-76
2023/01/05 09:43:49;;;;;;;10.77;2.10;;;15.40;74.00;;;;;;4842388;29;20085;-76
2023/01/05 09:46:26;;;;;;;17.42;2.80;;;15.40;74.00;;;;;;4845816;29;20085;-79
2023/01/05 09:48:57;;;;;;;10.40;2.67;;;15.40;74.00;;;;;;4843614;29;20069;-81
2023/01/05 09:51:24;;;;;;;12.38;2.80;;;15.40;74.10;;;;;;4828157;29;20053;-77
2023/01/05 09:53:50;;;;;;;8.88;1.92;;;15.40;74.10;;;;;;4843212;29;20143;-76
2023/01/05 09:56:27;;;;;;;10.68;2.17;;;15.40;74.00;;;;;;4848730;29;20041;-73
2023/01/05 09:59:16;;;;;;;11.45;2.40;;;15.40;73.90;;;;;;4854278;29;20387;-78
2023/01/05 10:01:45;;;;;;;14.27;2.90;;;15.40;73.90;;;;;;4835714;29;20129;-75
2023/01/05 10:04:17;;;;;;;12.80;1.70;;;15.40;73.90;;;;;;4834886;29;20054;-76
2023/01/05 10:06:48;;;;;;;11.93;3.10;;;15.40;74.00;;;;;;4842218;29;20103;-74
2023/01/05 10:09:20;;;;;;;10.65;2.58;;;15.40;74.00;;;;;;4840751;29;20366;-76
2023/01/05 10:15:02;;;;;;;11.50;3.35;;;15.40;74.10;;;;;;4821852;29;20085;-77
2023/01/05 10:17:32;;;;;;;12.35;2.97;;;15.40;73.60;;;;;;4826965;29;20390;-74
2023/01/05 10:19:58;;;;;;;15.18;3.45;;;15.40;73.30;;;;;;4844463;29;20133;-76
2023/01/05 10:22:37;;;;;;;19.40;3.22;;;15.40;72.30;;;;;;4844036;29;20054;-75
2023/01/05 10:25:18;;;;;;;17.38;3.33;;;15.30;71.70;;;;;;4841883;29;20157;-76
2023/01/05 10:27:52;;;;;;;18.33;3.30;;;15.30;71.10;;;;;;4855805;29;20057;-78
2023/01/05 10:30:24;;;;;;;11.02;2.53;;;15.20;71.00;;;;;;4844208;29;20050;-75
2023/01/05 10:33:02;;;;;;;14.23;2.92;;;15.30;71.00;;;;;;4815799;29;20061;-77
2023/01/05 10:35:50;;;;;;;18.77;3.28;;;15.30;71.10;;;;;;4825152;29;20050;-78
2023/01/05 10:38:30;;;;;;;14.90;3.38;;;15.30;71.20;;;;;;4840576;29;20061;-80
2023/01/05 10:41:02;;;;;;;15.52;3.13;;;15.30;71.20;;;;;;4825963;29;20061;-78
2023/01/05 10:43:49;;;;;;;14.13;3.28;;;15.30;70.80;;;;;;4810535;29;20059;-75
2023/01/05 10:46:16;;;;;;;11.45;2.97;;;15.30;70.70;;;;;;4828087;29;20371;-75
2023/01/05 10:48:41;;;;;;;14.23;2.72;;;15.30;70.60;;;;;;4844288;29;20054;-78
2023/01/05 10:51:08;;;;;;;14.98;3.17;;;15.30;70.40;;;;;;4828171;29;20370;-76
2023/01/05 10:53:40;;;;;;;14.00;2.97;;;15.30;70.20;;;;;;4843962;29;20057;-75
2023/01/05 10:56:13;;;;;;;11.65;2.75;;;15.20;70.00;;;;;;4843888;29;20076;-75
2023/01/05 10:58:42;;;;;;;15.02;2.90;;;15.30;69.90;;;;;;4844092;29;20054;-79
2023/01/05 11:01:24;;;;;;;19.05;3.45;;;15.30;70.10;;;;;;4827895;29;20054;-76
2023/01/05 11:04:07;;;;;;;22.35;5.30;;;15.30;70.20;;;;;;4832476;29;20068;-76
2023/01/05 11:06:35;;;;;;;17.50;6.57;;;15.30;70.20;;;;;;4825977;29;20126;-76
2023/01/05 11:09:06;;;;;;;17.08;4.68;;;15.20;70.20;;;;;;4825869;29;20050;-77
2023/01/05 11:11:31;;;;;;;23.30;7.28;;;15.20;70.20;;;;;;4826713;29;20046;-78
2023/01/05 11:13:58;;;;;;;26.92;7.05;;;15.20;70.40;;;;;;4824928;29;20050;-76
2023/01/05 11:16:32;;;;;;;22.80;5.90;;;15.20;70.50;;;;;;4825473;29;20518;-75
2023/01/05 11:19:12;;;;;;;26.98;8.60;;;15.20;70.60;;;;;;4825755;29;20191;-80
2023/01/05 11:21:43;;;;;;;25.10;7.32;;;15.20;71.70;;;;;;4825807;29;20058;-78
2023/01/05 11:24:30;;;;;;;21.20;5.30;;;15.20;72.10;;;;;;4825875;29;20046;-78
2023/01/05 11:27:13;;;;;;;26.17;6.35;;;15.20;71.30;;;;;;4825511;29;20069;-77
2023/01/05 11:29:39;;;;;;;18.08;5.15;;;15.20;71.00;;;;;;4813844;29;20073;-72
2023/01/05 11:32:09;;;;;;;24.08;8.20;;;15.20;71.00;;;;;;4825792;29;20490;-73
2023/01/05 11:34:35;;;;;;;25.27;7.68;;;15.20;71.00;;;;;;4828652;29;20058;-76
2023/01/05 11:37:27;;;;;;;44.15;26.45;;;15.20;71.20;;;;;;4842344;29;20054;-75
2023/01/05 11:39:58;;;;;;;27.33;9.23;;;15.20;72.80;;;;;;4846910;29;20462;-75
2023/01/05 11:42:24;;;;;;;26.05;6.80;;;15.20;72.70;;;;;;4847102;29;20065;-79
2023/01/05 11:45:03;;;;;;;16.38;5.60;;;15.20;71.70;;;;;;4830500;29;20512;-77
2023/01/05 11:47:35;;;;;;;18.98;4.90;;;15.10;71.20;;;;;;4846580;29;20053;-76
2023/01/05 11:50:03;;;;;;;20.55;4.38;;;15.10;70.90;;;;;;4847004;29;20371;-75
2023/01/05 11:52:58;;;;;;;12.88;3.40;;;15.10;70.20;;;;;;5133301;27;20354;-77
2023/01/05 11:55:36;;;;;;;14.68;3.83;;;15.10;70.40;;;;;;5078088;28;20139;-76
2023/01/05 11:58:19;;;;;;;15.02;3.35;;;15.00;70.10;;;;;;5112699;28;20086;-76
2023/01/05 12:00:54;;;;;;;18.40;3.30;;;15.00;70.00;;;;;;5102629;28;20051;-76
2023/01/05 12:03:28;;;;;;;13.90;3.60;;;15.00;70.40;;;;;;5092309;28;20041;-75
2023/01/05 12:06:09;;;;;;;11.27;2.80;;;15.00;70.90;;;;;;5092275;28;20044;-75
2023/01/05 12:08:44;;;;;;;17.20;2.95;;;15.10;71.50;;;;;;5092899;28;20044;-74
2023/01/05 12:11:21;;;;;;;12.40;2.25;;;15.20;71.50;;;;;;5092125;28;20152;-75
2023/01/05 12:14:05;;;;;;;13.38;2.92;;;15.30;72.20;;;;;;5074530;28;20044;-77
2023/01/05 12:16:50;;;;;;;16.85;3.17;;;15.40;71.60;;;;;;5075219;28;20056;-77
2023/01/05 12:19:40;;;;;;;14.48;2.40;;;15.40;71.60;;;;;;5092615;28;20044;-79
2023/01/05 12:22:12;;;;;;;14.57;2.72;;;15.50;71.70;;;;;;5093128;28;20040;-76
2023/01/05 12:25:04;;;;;;;15.88;3.15;;;15.50;71.40;;;;;;5092318;28;20123;-78
2023/01/05 12:27:33;;;;;;;10.70;2.28;;;15.50;71.10;;;;;;5073718;28;20044;-78
2023/01/05 12:30:22;;;;;;;12.27;2.78;;;15.60;71.90;;;;;;5091799;28;20044;-79
2023/01/05 12:33:15;;;;;;;11.65;2.50;;;15.60;71.10;;;;;;5053625;28;20059;-77
2023/01/05 12:35:59;;;;;;;18.60;3.50;;;15.50;71.10;;;;;;5091689;28;20059;-79
2023/01/05 12:38:30;;;;;;;11.90;2.97;;;15.50;71.40;;;;;;5103212;28;20047;-78
2023/01/05 12:41:17;;;;;;;16.05;3.25;;;15.50;71.70;;;;;;5105204;28;20047;-80
2023/01/05 12:44:19;;;;;;;13.30;3.60;;;15.50;71.80;;;;;;5101386;28;20493;-76
2023/01/05 12:47:06;;;;;;;15.65;2.63;;;15.50;72.10;;;;;;5091641;28;20044;-78
2023/01/05 12:49:44;;;;;;;22.20;4.05;;;15.50;72.20;;;;;;5091550;28;20087;-77
2023/01/05 12:52:15;;;;;;;14.13;2.63;;;15.50;72.40;;;;;;5073522;28;20066;-78
2023/01/05 12:55:16;;;;;;;13.68;2.53;;;15.30;71.60;;;;;;5074376;28;20084;-73
2023/01/05 12:57:48;;;;;;;15.70;2.75;;;15.20;71.90;;;;;;5073696;28;20051;-77
2023/01/05 13:00:17;;;;;;;13.52;2.90;;;15.30;72.70;;;;;;5073939;28;20060;-75
2023/01/05 13:02:54;;;;;;;14.50;2.83;;;15.30;72.90;;;;;;5086375;28;20036;-77
2023/01/05 13:05:33;;;;;;;17.63;3.38;;;15.20;73.00;;;;;;5077773;28;20062;-74
2023/01/05 13:08:23;;;;;;;17.02;2.75;;;15.20;73.00;;;;;;5062279;28;20042;-76
2023/01/05 13:11:03;;;;;;;12.07;2.80;;;15.30;73.30;;;;;;5085376;28;20374;-78
2023/01/05 13:13:36;;;;;;;10.13;2.63;;;15.20;73.30;;;;;;5085321;28;20040;-77
2023/01/05 13:16:02;;;;;;;14.27;2.20;;;15.30;73.70;;;;;;5067781;28;20101;-79
2023/01/05 13:18:29;;;;;;;12.38;2.67;;;15.30;73.80;;;;;;5059679;28;20052;-81
2023/01/05 13:21:00;;;;;;;18.13;3.17;;;15.30;73.90;;;;;;5073255;28;20105;-77
2023/01/05 13:23:39;;;;;;;12.10;2.30;;;15.30;74.10;;;;;;5079779;28;20036;-77
2023/01/05 13:26:15;;;;;;;23.95;2.85;;;15.40;74.30;;;;;;5093005;28;20040;-78
2023/01/05 13:28:55;;;;;;;17.08;2.97;;;15.40;74.60;;;;;;5086091;28;20056;-79
2023/01/05 13:31:45;;;;;;;18.58;2.80;;;15.40;73.90;;;;;;5085293;28;20052;-74
2023/01/05 13:34:27;;;;;;;15.45;2.85;;;15.50;73.80;;;;;;5070553;28;20094;-76